KCLL/CLL METAR and TAF weather

Enter ICAO airport designator
Station Type Date Time Source
KCLL METAR 2019/05/27 09:53 UTC NOAA

KCLL 270953Z AUTO 18005KT 10SM CLR 23/22 A2995 RMK AO2 SLP135 T02330217


Station Type Date Time Source
KCLL Decoded METAR 2019/05/27 09:53 UTC NOAA

COLLEGE STN EASTERWOOD FIELD, TX, United States (KCLL) 30-35N 096-22W 96M
May 27, 2019 - 05:53 AM EDT / 2019.05.27 0953 UTC
Wind: from the S (180 degrees) at 6 MPH (5 KT):0
Visibility: 10 mile(s):0
Sky conditions: clear
Temperature: 73.9 F (23.3 C)
Dew Point: 71.1 F (21.7 C)
Relative Humidity: 90%
Pressure (altimeter): 29.95 in. Hg (1014 hPa)
ob: KCLL 270953Z AUTO 18005KT 10SM CLR 23/22 A2995 RMK AO2 SLP135 T02330217
cycle: 10

Station Type Date Time Source
KCLL TAF 2019/05/27 09:54 UTC NOAA

TAF
AMD KCLL 270851Z 2709/2806 15011KT P6SM FEW022 OVC250
TEMPO 2710/2714 BKN023 OVC250
FM271400 16010KT P6SM SCT020 BKN035
FM271800 16013G20KT P6SM SCT050
FM280200 17010KT P6SM SCT030

Example: see airport list